.
WxDataArchive / Data Records for 2007-12-12
2007-12-11 December 2007 2007-12-13

Data Records for Wednesday, 12 December 2007

Time	Temp	Chill	HIndex	Humid	Dewpt	 Wind 	HiWind	WindDir	Rain 	Barom 
-----	----	-----	------	-----	-----	------	------	-------	-----	----- 
00:00	35.2	35.2	35.2	96	34.2	0	1	292	0.00	30.040 
00:05	35.2	35.2	35.2	96	34.2	0	1	292	0.02	30.037 
00:10	35.2	35.2	35.2	96	34.2	0	0	---	0.00	30.040 
00:15	35.2	35.2	35.2	96	34.2	0	1	292	0.01	30.039 
00:20	35.0	35.0	35.0	96	34.0	0	1	292	0.00	30.038 
00:25	35.2	35.2	35.2	96	34.2	0	1	292	0.01	30.052 
00:30	35.2	35.2	35.2	96	34.2	0	1	292	0.00	30.041 
00:35	35.0	35.0	35.0	96	34.0	0	1	292	0.00	30.047 
00:40	35.0	35.0	35.0	96	34.0	0	2	292	0.00	30.058 
00:45	35.0	35.0	35.0	96	34.0	0	1	292	0.00	30.055 
00:50	35.0	35.0	35.0	96	34.0	0	2	292	0.00	30.058 
00:55	35.0	35.0	35.0	96	34.0	0	2	270	0.01	30.058 
01:00	35.0	35.0	35.0	96	34.0	0	2	270	0.01	30.062 
01:05	35.0	35.0	35.0	96	34.0	0	1	270	0.02	30.055 
01:10	34.9	34.9	34.9	96	33.9	0	1	270	0.00	30.054 
01:15	34.9	34.9	34.9	96	33.9	0	2	270	0.01	30.055 
01:20	34.9	34.9	34.9	96	33.9	1	2	270	0.00	30.054 
01:25	34.7	34.7	34.7	96	33.7	0	1	270	0.01	30.051 
01:30	34.7	34.7	34.7	96	33.7	0	1	270	0.00	30.058 
01:35	34.7	34.7	34.7	96	33.7	0	2	270	0.00	30.064 
01:40	34.7	34.7	34.7	96	33.7	0	2	270	0.00	30.062 
01:45	34.6	34.6	34.6	96	33.6	0	3	270	0.01	30.054 
01:50	34.6	34.6	34.6	96	33.6	0	1	292	0.01	30.052 
01:55	34.6	34.6	34.6	96	33.6	0	2	292	0.00	30.055 
02:00	34.6	34.6	34.6	96	33.6	0	2	292	0.00	30.064 
02:05	34.6	34.6	34.6	96	33.6	0	1	292	0.00	30.064 
02:10	34.6	34.6	34.6	96	33.6	0	0	---	0.00	30.063 
02:15	34.6	34.6	34.6	96	33.6	0	1	292	0.00	30.072 
02:20	34.6	34.6	34.6	96	33.6	0	0	---	0.00	30.063 
02:25	34.6	34.6	34.6	96	33.6	0	0	---	0.00	30.068 
02:30	34.6	34.6	34.6	96	33.6	0	1	292	0.00	30.076 
02:35	34.6	34.6	34.6	96	33.6	0	1	292	0.01	30.080 
02:40	34.6	34.6	34.6	96	33.6	0	1	292	0.00	30.086 
02:45	34.6	34.6	34.6	96	33.6	0	0	---	0.00	30.075 
02:50	34.6	34.6	34.6	96	33.6	0	1	292	0.01	30.071 
02:55	34.6	34.6	34.6	96	33.6	0	1	292	0.00	30.062 
03:00	34.6	34.6	34.6	96	33.6	0	0	---	0.00	30.068 
03:05	34.6	34.6	34.6	96	33.6	0	0	---	0.00	30.065 
03:10	34.6	34.6	34.6	96	33.6	0	1	292	0.00	30.067 
03:15	34.4	34.4	34.4	96	33.4	0	0	---	0.00	30.072 
03:20	34.4	34.4	34.4	96	33.4	0	0	---	0.00	30.070 
03:25	34.4	34.4	34.4	96	33.4	0	1	292	0.00	30.070 
03:30	34.4	34.4	34.4	96	33.4	0	1	292	0.00	30.063 
03:35	34.4	34.4	34.4	96	33.4	0	1	292	0.00	30.073 
03:40	34.4	34.4	34.4	96	33.4	0	1	292	0.00	30.074 
03:45	34.4	34.4	34.4	96	33.4	0	1	292	0.00	30.069 
03:50	34.4	34.4	34.4	96	33.4	0	2	292	0.00	30.084 
03:55	34.3	34.3	34.3	96	33.3	0	2	292	0.00	30.085 
04:00	34.3	34.3	34.3	96	33.3	1	2	270	0.00	30.085 
04:05	34.3	34.3	34.3	96	33.3	0	1	270	0.00	30.095 
04:10	34.3	34.3	34.3	96	33.3	0	2	270	0.00	30.094 
04:15	34.3	34.3	34.3	96	33.3	0	3	270	0.00	30.098 
04:20	34.3	34.3	34.3	96	33.3	0	2	270	0.00	30.102 
04:25	34.3	34.3	34.3	96	33.3	0	1	270	0.00	30.098 
04:30	34.3	34.3	34.3	96	33.3	0	1	270	0.00	30.100 
04:35	34.3	34.3	34.3	96	33.3	0	1	270	0.00	30.101 
04:40	34.3	34.3	34.3	96	33.3	0	2	270	0.00	30.099 
04:45	34.3	34.3	34.3	96	33.3	0	2	270	0.00	30.113 
04:50	34.3	34.3	34.3	96	33.3	0	2	270	0.00	30.109 
04:55	34.3	34.3	34.3	96	33.3	0	1	270	0.00	30.114 
05:00	34.3	34.3	34.3	96	33.3	0	1	270	0.00	30.119 
05:05	34.3	34.3	34.3	96	33.3	0	1	270	0.00	30.126 
05:10	34.3	34.3	34.3	96	33.3	0	1	270	0.00	30.131 
05:15	34.3	34.3	34.3	96	33.3	0	1	270	0.00	30.130 
05:20	34.3	34.3	34.3	96	33.3	0	1	270	0.00	30.130 
05:25	34.1	34.1	34.1	96	33.1	0	2	270	0.00	30.131 
05:30	34.1	34.1	34.1	96	33.1	0	2	270	0.00	30.130 
05:35	34.1	34.1	34.1	96	33.1	0	2	270	0.00	30.132 
05:40	34.0	34.0	34.0	95	32.7	0	2	270	0.00	30.131 
05:45	34.1	34.1	34.1	95	32.8	0	1	270	0.00	30.131 
05:50	34.1	34.1	34.1	95	32.8	0	1	270	0.00	30.132 
05:55	34.1	34.1	34.1	95	32.8	0	1	270	0.00	30.134 
06:00	34.1	34.1	34.1	95	32.8	0	1	270	0.00	30.140 
06:05	34.1	34.1	34.1	95	32.8	0	2	270	0.00	30.150 
06:10	34.1	34.1	34.1	95	32.8	0	2	270	0.00	30.157 
06:15	34.1	34.1	34.1	95	32.8	0	3	270	0.00	30.161 
06:20	34.0	34.0	34.0	95	32.7	0	2	270	0.00	30.162 
06:25	34.0	34.0	34.0	95	32.7	1	3	270	0.00	30.162 
06:30	33.8	33.8	33.8	95	32.5	0	1	315	0.00	30.163 
06:35	33.8	33.8	33.8	94	32.3	0	3	315	0.00	30.167 
06:40	33.7	33.7	33.7	94	32.2	0	2	270	0.00	30.172 
06:45	33.5	33.5	33.5	94	32.0	0	1	270	0.00	30.170 
06:50	33.5	33.5	33.5	94	32.0	0	1	270	0.00	30.173 
06:55	33.5	33.5	33.5	93	31.7	0	2	270	0.00	30.179 
07:00	33.4	33.4	33.4	93	31.6	0	2	270	0.00	30.182 
07:05	33.4	33.4	33.4	93	31.6	0	2	270	0.00	30.182 
07:10	33.4	33.4	33.4	92	31.3	0	1	270	0.00	30.185 
07:15	33.4	33.4	33.4	92	31.3	0	2	270	0.00	30.188 
07:20	33.2	33.2	33.2	92	31.1	0	2	270	0.00	30.189 
07:25	33.2	33.2	33.2	92	31.1	0	3	292	0.00	30.189 
07:30	33.1	33.1	33.1	91	30.8	0	2	292	0.00	30.192 
07:35	33.1	33.1	33.1	91	30.8	0	1	270	0.00	30.195 
07:40	33.1	33.1	33.1	91	30.8	0	3	270	0.00	30.199 
07:45	32.9	32.9	32.9	90	30.3	0	2	292	0.00	30.212 
07:50	32.9	32.9	32.9	90	30.3	1	3	315	0.00	30.215 
07:55	32.9	32.9	32.9	89	30.0	1	3	270	0.00	30.222 
08:00	32.8	32.8	32.8	88	29.6	0	2	292	0.00	30.227 
08:05	32.8	32.8	32.8	88	29.6	0	1	292	0.00	30.231 
08:10	32.8	32.8	32.8	88	29.6	0	5	315	0.00	30.230 
08:15	32.8	32.8	32.8	88	29.6	0	2	315	0.00	30.230 
08:20	32.8	32.8	32.8	88	29.6	0	2	315	0.00	30.242 
08:25	32.8	32.8	32.8	88	29.6	0	1	315	0.00	30.246 
08:30	32.8	32.8	32.8	88	29.6	0	1	315	0.00	30.245 
08:35	32.8	32.8	32.8	88	29.6	0	1	315	0.00	30.245 
08:40	32.8	32.8	32.8	88	29.6	0	2	315	0.00	30.239 
08:45	32.8	32.8	32.8	87	29.4	0	2	315	0.00	30.234 
08:50	32.8	32.8	32.8	87	29.4	1	3	338	0.00	30.239 
08:55	32.8	32.8	32.8	86	29.1	0	2	338	0.00	30.244 
09:00	32.8	32.8	32.8	86	29.1	0	2	338	0.00	30.244 
09:05	32.8	32.8	32.8	86	29.1	0	2	338	0.00	30.245 
09:10	33.1	33.1	33.1	87	29.7	0	2	338	0.00	30.247 
09:15	33.4	33.4	33.4	86	29.7	1	4	22	0.00	30.250 
09:20	33.4	33.4	33.4	85	29.4	1	5	22	0.00	30.256 
09:25	33.5	33.5	33.5	85	29.5	0	3	0	0.00	30.258 
09:30	33.5	33.5	33.5	84	29.2	1	3	0	0.00	30.261 
09:35	33.7	33.7	33.7	85	29.7	0	2	22	0.00	30.263 
09:40	33.5	33.5	33.5	84	29.2	1	3	0	0.00	30.266 
09:45	33.5	33.5	33.5	84	29.2	0	2	338	0.00	30.265 
09:50	33.7	33.7	33.7	84	29.4	0	2	338	0.00	30.271 
09:55	33.7	33.7	33.7	84	29.4	0	2	338	0.00	30.277 
10:00	33.7	33.7	33.7	84	29.4	0	2	338	0.00	30.278 
10:05	33.7	33.7	33.7	84	29.4	0	1	0	0.00	30.277 
10:10	33.8	33.8	33.8	84	29.5	1	3	45	0.00	30.277 
10:15	33.8	33.8	33.8	84	29.5	1	2	45	0.00	30.279 
10:20	34.0	34.0	34.0	83	29.4	0	3	68	0.00	30.282 
10:25	34.1	34.1	34.1	82	29.2	1	3	68	0.00	30.290 
10:30	34.3	34.3	34.3	82	29.4	0	2	135	0.00	30.291 
10:35	34.0	34.0	34.0	78	27.9	2	7	112	0.00	30.292 
10:40	34.0	34.0	34.0	79	28.2	1	2	22	0.00	30.294 
10:45	33.8	33.8	33.8	78	27.7	1	4	112	0.00	30.292 
10:50	33.5	33.5	33.5	77	27.1	1	4	68	0.00	30.285 
10:55	33.5	33.5	33.5	80	28.0	0	4	45	0.00	30.280 
11:00	33.8	33.8	33.8	79	28.0	1	3	112	0.00	30.289 
11:05	34.1	34.1	34.1	79	28.3	1	3	135	0.00	30.291 
11:10	34.3	34.3	34.3	79	28.5	1	3	90	0.00	30.293 
11:15	34.3	34.3	34.3	78	28.2	1	3	22	0.00	30.294 
11:20	34.3	34.3	34.3	77	27.9	1	3	22	0.00	30.288 
11:25	34.6	34.6	34.6	77	28.1	1	3	112	0.00	30.291 
11:30	34.9	34.9	34.9	77	28.4	1	3	112	0.00	30.286 
11:35	35.0	35.0	35.0	76	28.2	2	6	112	0.00	30.287 
11:40	35.0	35.0	35.0	72	26.9	3	6	112	0.00	30.282 
11:45	34.9	34.9	34.9	75	27.8	2	6	112	0.00	30.277 
11:50	35.0	35.0	35.0	76	28.2	1	6	112	0.00	30.275 
11:55	35.0	35.0	35.0	74	27.6	1	4	112	0.00	30.274 
12:00	35.2	35.2	35.2	73	27.4	1	4	90	0.00	30.278 
12:05	35.2	35.2	35.2	74	27.8	1	4	90	0.00	30.284 
12:10	35.5	35.5	35.5	75	28.4	1	4	112	0.00	30.279 
12:15	35.6	35.6	35.6	74	28.1	3	10	90	0.00	30.275 
12:20	35.8	35.8	35.8	69	26.6	2	5	90	0.00	30.273 
12:25	35.6	35.6	35.6	69	26.4	2	4	112	0.00	30.267 
12:30	35.8	35.8	35.8	71	27.3	1	6	90	0.00	30.262 
12:35	35.9	35.9	35.9	69	26.7	2	7	112	0.00	30.261 
12:40	35.9	35.9	35.9	68	26.4	3	7	112	0.00	30.260 
12:45	35.9	35.9	35.9	68	26.4	2	5	112	0.00	30.260 
12:50	36.2	36.2	36.2	67	26.3	2	4	45	0.00	30.259 
12:55	36.2	36.2	36.2	65	25.6	3	10	112	0.00	30.246 
13:00	36.2	36.2	36.2	69	27.0	3	6	112	0.00	30.242 
13:05	36.2	36.2	36.2	66	26.0	3	7	112	0.00	30.237 
13:10	36.2	36.2	36.2	68	26.7	3	7	112	0.00	30.244 
13:15	36.3	33.0	36.3	66	26.0	4	8	112	0.00	30.241 
13:20	36.5	36.5	36.5	69	27.3	2	6	90	0.00	30.230 
13:25	36.8	36.8	36.8	66	26.5	2	5	90	0.00	30.226 
13:30	36.8	36.8	36.8	65	26.2	2	6	90	0.00	30.226 
13:35	36.6	33.4	36.6	63	25.2	4	8	112	0.00	30.226 
13:40	36.8	36.8	36.8	63	25.4	2	5	112	0.00	30.227 
13:45	36.9	36.9	36.9	61	24.7	3	6	90	0.00	30.227 
13:50	36.9	36.9	36.9	62	25.1	3	6	112	0.00	30.229 
13:55	37.0	37.0	37.0	62	25.2	2	6	90	0.00	30.233 
14:00	36.9	36.9	36.9	62	25.1	2	5	90	0.00	30.239 
14:05	36.9	36.9	36.9	64	25.9	2	5	112	0.00	30.239 
14:10	36.8	36.8	36.8	65	26.2	2	5	112	0.00	30.244 
14:15	36.5	36.5	36.5	65	25.9	1	5	90	0.00	30.255 
14:20	36.3	36.3	36.3	65	25.7	0	1	90	0.00	30.253 
14:25	36.5	36.5	36.5	67	26.6	1	3	90	0.00	30.244 
14:30	36.8	36.8	36.8	66	26.5	2	5	90	0.00	30.236 
14:35	36.9	36.9	36.9	67	27.0	1	3	112	0.00	30.231 
14:40	37.2	37.2	37.2	66	26.9	3	6	90	0.00	30.232 
14:45	37.2	37.2	37.2	65	26.5	2	5	112	0.00	30.232 
14:50	37.2	37.2	37.2	66	26.9	1	3	112	0.00	30.230 
14:55	37.2	37.2	37.2	67	27.3	2	5	90	0.00	30.229 
15:00	37.2	37.2	37.2	66	26.9	2	4	90	0.00	30.227 
15:05	37.2	37.2	37.2	64	26.2	3	7	90	0.00	30.230 
15:10	37.2	37.2	37.2	65	26.5	2	6	112	0.00	30.230 
15:15	37.3	37.3	37.3	65	26.6	2	5	90	0.00	30.220 
15:20	37.5	37.5	37.5	65	26.8	1	4	112	0.00	30.223 
15:25	37.5	37.5	37.5	65	26.8	2	3	112	0.00	30.226 
15:30	37.5	37.5	37.5	64	26.4	2	6	90	0.00	30.218 
15:35	37.3	37.3	37.3	64	26.3	3	7	112	0.00	30.221 
15:40	37.3	37.3	37.3	63	25.9	2	6	90	0.00	30.227 
15:45	37.3	37.3	37.3	63	25.9	3	6	112	0.00	30.228 
15:50	37.2	37.2	37.2	64	26.2	2	5	112	0.00	30.226 
15:55	37.0	33.9	37.0	64	26.0	4	6	112	0.00	30.223 
16:00	36.9	36.9	36.9	65	26.3	2	6	90	0.00	30.221 
16:05	36.9	36.9	36.9	66	26.6	3	5	90	0.00	30.227 
16:10	36.9	36.9	36.9	67	27.0	3	9	90	0.00	30.214 
16:15	36.8	36.8	36.8	68	27.2	3	6	112	0.00	30.213 
16:20	36.6	36.6	36.6	66	26.3	3	7	112	0.00	30.209 
16:25	36.6	36.6	36.6	67	26.7	3	5	90	0.00	30.211 
16:30	36.5	36.5	36.5	67	26.6	2	5	90	0.00	30.215 
16:35	36.3	36.3	36.3	68	26.8	2	5	90	0.00	30.216 
16:40	36.2	36.2	36.2	68	26.7	2	6	112	0.00	30.213 
16:45	36.0	36.0	36.0	69	26.8	2	4	112	0.00	30.215 
16:50	35.9	35.9	35.9	70	27.1	1	3	90	0.00	30.228 
16:55	35.8	35.8	35.8	71	27.3	0	1	90	0.00	30.229 
17:00	35.5	35.5	35.5	72	27.4	0	2	90	0.00	30.230 
17:05	35.3	35.3	35.3	72	27.2	0	2	90	0.00	30.231 
17:10	35.0	35.0	35.0	73	27.2	0	2	90	0.00	30.232 
17:15	34.9	34.9	34.9	73	27.1	0	1	90	0.00	30.234 
17:20	34.6	34.6	34.6	74	27.2	0	0	---	0.00	30.234 
17:25	34.1	34.1	34.1	75	27.0	0	0	---	0.00	30.240 
17:30	33.8	33.8	33.8	76	27.1	0	1	90	0.00	30.231 
17:35	33.7	33.7	33.7	77	27.3	0	1	90	0.00	30.233 
17:40	33.5	33.5	33.5	77	27.1	0	0	---	0.00	30.233 
17:45	33.4	33.4	33.4	78	27.3	0	1	90	0.00	30.231 
17:50	33.2	33.2	33.2	78	27.1	0	2	90	0.00	30.228 
17:55	33.2	33.2	33.2	78	27.1	0	2	90	0.00	30.231 
18:00	33.2	33.2	33.2	78	27.1	0	2	90	0.00	30.236 
18:05	33.1	33.1	33.1	78	27.0	0	1	90	0.00	30.246 
18:10	32.9	32.9	32.9	79	27.1	0	2	90	0.00	30.233 
18:15	32.8	32.8	32.8	79	27.0	0	2	90	0.00	30.235 
18:20	32.7	32.7	32.7	80	27.2	0	1	90	0.00	30.237 
18:25	32.5	32.5	32.5	81	27.3	0	2	90	0.00	30.232 
18:30	32.4	32.4	32.4	81	27.2	0	2	90	0.00	30.236 
18:35	32.2	32.2	32.2	81	27.0	0	1	90	0.00	30.240 
18:40	32.2	32.2	32.2	81	27.0	0	1	90	0.00	30.247 
18:45	32.1	32.1	32.1	81	26.9	0	2	90	0.00	30.248 
18:50	31.9	31.9	31.9	82	27.0	0	1	90	0.00	30.250 
18:55	31.8	31.8	31.8	82	26.9	0	1	90	0.00	30.246 
19:00	31.8	31.8	31.8	82	26.9	0	2	90	0.00	30.240 
19:05	31.9	31.9	31.9	82	27.0	1	3	90	0.00	30.232 
19:10	31.9	31.9	31.9	82	27.0	1	3	90	0.00	30.234 
19:15	32.1	32.1	32.1	82	27.2	1	3	90	0.00	30.233 
19:20	32.1	32.1	32.1	82	27.2	0	1	90	0.00	30.250 
19:25	32.1	32.1	32.1	82	27.2	0	2	90	0.00	30.250 
19:30	32.1	32.1	32.1	82	27.2	0	2	90	0.00	30.249 
19:35	32.2	32.2	32.2	81	27.0	0	2	90	0.00	30.251 
19:40	32.2	32.2	32.2	81	27.0	0	1	90	0.00	30.263 
19:45	32.2	32.2	32.2	81	27.0	0	1	90	0.00	30.264 
19:50	32.4	32.4	32.4	81	27.2	0	2	90	0.00	30.264 
19:55	32.4	32.4	32.4	81	27.2	0	1	90	0.00	30.266 
20:00	32.4	32.4	32.4	81	27.2	0	0	---	0.00	30.267 
20:05	32.4	32.4	32.4	82	27.5	0	1	90	0.00	30.268 
20:10	32.4	32.4	32.4	82	27.5	0	1	90	0.00	30.267 
20:15	32.2	32.2	32.2	82	27.3	0	1	90	0.00	30.255 
20:20	32.2	32.2	32.2	82	27.3	0	3	90	0.00	30.262 
20:25	32.4	32.4	32.4	82	27.5	1	3	112	0.00	30.251 
20:30	32.4	32.4	32.4	82	27.5	1	2	112	0.00	30.245 
20:35	32.2	32.2	32.2	83	27.6	1	2	112	0.00	30.251 
20:40	32.2	32.2	32.2	83	27.6	1	4	112	0.00	30.249 
20:45	32.2	32.2	32.2	83	27.6	1	3	112	0.00	30.241 
20:50	32.2	32.2	32.2	83	27.6	1	4	112	0.00	30.237 
20:55	32.1	32.1	32.1	83	27.5	1	3	90	0.00	30.231 
21:00	32.1	32.1	32.1	83	27.5	2	5	90	0.00	30.222 
21:05	32.1	32.1	32.1	83	27.5	2	5	90	0.00	30.216 
21:10	31.9	31.9	31.9	84	27.6	1	4	112	0.00	30.226 
21:15	31.9	31.9	31.9	84	27.6	2	5	90	0.00	30.216 
21:20	31.9	31.9	31.9	84	27.6	2	5	90	0.00	30.216 
21:25	31.9	31.9	31.9	84	27.6	2	4	112	0.00	30.213 
21:30	31.9	31.9	31.9	84	27.6	2	7	112	0.00	30.209 
21:35	31.9	31.9	31.9	84	27.6	3	6	112	0.00	30.208 
21:40	31.9	31.9	31.9	84	27.6	3	6	112	0.00	30.200 
21:45	31.9	31.9	31.9	84	27.6	3	8	90	0.00	30.199 
21:50	31.9	28.0	31.9	84	27.6	4	10	112	0.00	30.190 
21:55	31.9	28.0	31.9	84	27.6	4	10	112	0.00	30.202 
22:00	31.9	28.0	31.9	84	27.6	4	7	90	0.00	30.201 
22:05	31.9	27.0	31.9	84	27.6	5	9	90	0.00	30.186 
22:10	31.9	27.0	31.9	84	27.6	5	11	90	0.00	30.185 
22:15	31.8	27.8	31.8	84	27.5	4	10	112	0.00	30.199 
22:20	31.8	31.8	31.8	85	27.8	3	9	112	0.00	30.204 
22:25	31.8	31.8	31.8	85	27.8	3	7	112	0.00	30.197 
22:30	31.8	31.8	31.8	85	27.8	3	6	112	0.00	30.212 
22:35	31.8	31.8	31.8	85	27.8	3	7	90	0.00	30.205 
22:40	31.6	31.6	31.6	85	27.6	2	5	90	0.00	30.197 
22:45	31.6	31.6	31.6	85	27.6	2	6	90	0.00	30.200 
22:50	31.6	31.6	31.6	85	27.6	2	5	112	0.00	30.201 
22:55	31.6	31.6	31.6	85	27.6	2	4	90	0.00	30.201 
23:00	31.6	31.6	31.6	84	27.3	3	7	90	0.00	30.192 
23:05	31.5	31.5	31.5	84	27.2	3	6	90	0.00	30.182 
23:10	31.5	31.5	31.5	83	26.9	3	9	112	0.00	30.185 
23:15	31.5	31.5	31.5	82	26.7	3	6	90	0.00	30.185 
23:20	31.5	27.5	31.5	82	26.7	4	7	112	0.00	30.178 
23:25	31.5	31.5	31.5	82	26.7	3	9	90	0.00	30.179 
23:30	31.5	31.5	31.5	82	26.7	3	10	112	0.00	30.171 
23:35	31.5	27.5	31.5	81	26.4	4	10	112	0.00	30.166 
23:40	31.5	27.5	31.5	82	26.7	4	9	112	0.00	30.155 
23:45	31.5	27.5	31.5	82	26.7	4	7	112	0.00	30.153 
23:50	31.3	27.3	31.3	83	26.7	4	7	112	0.00	30.154 
23:55	31.3	31.3	31.3	83	26.7	3	7	90	0.00	30.153 

CoCoRaHS
IN-AL-39
A2 Web Hosting
Creative Commons License
GoDaddy
Look for:

loaded 2017-10-16 18:21:46 • last modified 2010-11-18 10:43:29
Privacy PolicyDisclaimer
• wx.awcolley.com is powered by PmWiki v.2002016 •
• all content (unless otherwise noted) © 2017 A W Colley